EW5802 Weather Reports


Display with metric or nautical units.
time (UTC)temp
F
wind
direction
speed
MPH
gust
MPH
rain 1hr
in
rain 24hr
in
rain mn
in
humidity
%
barometer
mb
20181018053706 43 278 6.0 13.0 0.00 0.00 0.00 69 1022.9
20181018053208 43 277 5.0 12.0 0.00 0.00 0.00 70 1022.9
20181018052705 43 281 4.0 8.0 0.00 0.00 0.00 69 1022.8
20181018052206 44 282 3.0 7.0 0.00 0.00 0.00 67 1022.7
20181018051706 44 305 7.0 13.0 0.00 0.00 0.00 66 1022.8
20181018051205 44 311 5.0 12.0 0.00 0.00 0.00 68 1022.7
20181018050708 44 277 6.0 12.0 0.00 0.00 0.00 67 1022.8
20181018050206 44 306 9.0 17.0 0.00 0.00 0.00 69 1022.5
20181018045706 44 289 5.0 10.0 0.00 0.00 0.00 70 1022.5
20181018045206 45 270 4.0 13.0 0.00 0.00 0.00 69 1022.5
20181018044706 45 305 3.0 13.0 0.00 0.00 0.00 68 1022.5
20181018044206 45 287 5.0 10.0 0.00 0.00 0.00 67 1022.6
20181018043708 45 311 6.0 20.0 0.00 0.00 0.00 67 1022.5
20181018043206 45 288 5.0 10.0 0.00 0.00 0.00 68 1022.5
20181018042706 45 318 7.0 16.0 0.00 0.00 0.00 69 1022.4
20181018042206 45 277 3.0 12.0 0.00 0.00 0.00 71 1022.3
20181018041706 45 257 4.0 9.0 0.00 0.00 0.00 71 1022.4
20181018041208 45 280 3.0 8.0 0.00 0.00 0.00 71 1022.4
20181018040707 45 271 4.0 9.0 0.00 0.00 0.00 71 1022.3
20181018040208 45 275 5.0 10.0 0.00 0.00 0.00 72 1022.2
20181018035706 45 258 3.0 12.0 0.00 0.00 0.00 70 1022.1
20181018035206 45 309 5.0 12.0 0.00 0.00 0.00 71 1021.9
20181018034706 45 276 4.0 12.0 0.00 0.00 0.00 71 1021.9
20181018034206 45 282 5.0 12.0 0.00 0.00 0.00 71 1021.8
20181018033706 45 279 5.0 12.0 0.00 0.00 0.00 70 1021.8
20181018033207 46 287 7.0 16.0 0.00 0.00 0.00 70 1021.6
20181018032706 46 279 5.0 10.0 0.00 0.00 0.00 69 1021.4
20181018032207 46 275 5.0 14.0 0.00 0.00 0.00 68 1021.2
20181018031706 46 279 6.0 13.0 0.00 0.00 0.00 68 1021.2
20181018031208 46 270 8.0 14.0 0.00 0.00 0.00 69 1021.2
20181018030706 46 274 7.0 13.0 0.00 0.00 0.00 69 1021.0
20181018030206 47 269 7.0 12.0 0.00 0.00 0.00 67 1021.0
20181018025706 47 275 6.0 14.0 0.00 0.00 0.00 66 1021.1
20181018025206 47 300 8.0 16.0 0.00 0.00 0.00 66 1021.0
20181018024706 47 290 5.0 12.0 0.00 0.00 0.00 66 1020.9
20181018024205 47 296 6.0 12.0 0.00 0.00 0.00 65 1020.9
20181018023705 48 276 6.0 12.0 0.00 0.00 0.00 65 1020.9
20181018023206 48 304 5.0 15.0 0.00 0.00 0.00 64 1021.0
20181018022706 49 294 9.0 16.0 0.00 0.00 0.00 63 1020.9
20181018022208 49 300 8.0 16.0 0.00 0.00 0.00 62 1020.7
20181018021707 49 315 7.0 17.0 0.00 0.00 0.00 62 1020.6
20181018021205 49 304 9.0 17.0 0.00 0.00 0.00 61 1020.6
20181018020706 49 305 9.0 16.0 0.00 0.00 0.00 61 1020.6
20181018020206 50 295 9.0 20.0 0.00 0.00 0.00 61 1020.4
20181018015705 50 297 10.0 18.0 0.00 0.00 0.00 61 1020.2
20181018015205 50 325 10.0 17.0 0.00 0.00 0.00 61 1020.1
20181018014708 50 280 7.0 14.0 0.00 0.00 0.00 61 1020.0
20181018014206 50 305 10.0 18.0 0.00 0.00 0.00 61 1019.9
20181018013705 50 318 9.0 18.0 0.00 0.00 0.00 62 1019.8
20181018013205 50 295 6.0 20.0 0.00 0.00 0.00 63 1019.8
20181018012706 50 320 9.0 17.0 0.00 0.00 0.00 63 1019.8
20181018012206 50 271 4.0 15.0 0.00 0.00 0.00 63 1019.5
20181018011706 51 301 8.0 15.0 0.00 0.00 0.00 62 1019.3
20181018011205 51 291 8.0 16.0 0.00 0.00 0.00 60 1019.2
20181018010706 51 314 10.0 18.0 0.00 0.00 0.00 60 1019.1
20181018010206 51 342 8.0 16.0 0.00 0.00 0.00 62 1018.9
20181018005706 51 284 4.0 10.0 0.00 0.00 0.00 62 1018.9
20181018005208 51 277 5.0 15.0 0.00 0.00 0.00 62 1018.7
20181018001206 51 265 6.0 12.0 0.00 0.00 0.00 59 1017.7
20181018000708 52 279 6.0 10.0 0.00 0.00 0.00 59 1017.6
20181018000205 52 284 8.0 14.0 0.00 0.00 0.00 57 1017.6
20181017235706 52 272 9.0 17.0 0.00 0.00 0.00 57 1017.7
20181017235206 52 292 7.0 14.0 0.00 0.00 0.00 58 1017.6
20181017234706 52 287 6.0 20.0 0.00 0.00 0.00 57 1017.5
20181017234205 53 288 9.0 20.0 0.00 0.00 0.00 56 1017.4
20181017233706 53 310 11.0 18.0 0.00 0.00 0.00 56 1017.3
20181017233206 53 280 7.0 14.0 0.00 0.00 0.00 56 1017.2
20181017232706 53 290 6.0 16.0 0.00 0.00 0.00 57 1017.2
20181017232206 53 306 9.0 18.0 0.00 0.00 0.00 57 1017.0
20181017231706 53 291 7.0 15.0 0.00 0.00 0.00 56 1016.9
20181017231205 53 282 6.0 13.0 0.00 0.00 0.00 56 1016.8
20181017230708 53 298 9.0 20.0 0.00 0.00 0.00 57 1016.8
20181017230205 53 276 6.0 20.0 0.00 0.00 0.00 57 1016.8
20181017225706 54 286 10.0 22.0 0.00 0.00 0.00 57 1016.6
20181017225206 54 294 10.0 18.0 0.00 0.00 0.00 56 1016.5
20181017224706 54 284 9.0 18.0 0.00 0.00 0.00 56 1016.4
20181017224205 54 280 10.0 22.0 0.00 0.00 0.00 56 1016.4
20181017223706 54 282 10.0 20.0 0.00 0.00 0.00 56 1016.3
20181017223206 54 311 10.0 17.0 0.00 0.00 0.00 56 1016.2
20181017222706 54 288 13.0 20.0 0.00 0.00 0.00 56 1016.1
20181017222207 54 275 13.0 29.0 0.00 0.00 0.00 57 1015.8
20181017221705 54 311 11.0 20.0 0.00 0.00 0.00 58 1015.9
20181017221205 54 276 7.0 13.0 0.00 0.00 0.00 60 1015.9
20181017220708 54 306 7.0 13.0 0.00 0.00 0.00 61 1015.7
20181017220206 55 275 9.0 14.0 0.00 0.00 0.00 60 1015.6
20181017215705 55 287 6.0 12.0 0.00 0.00 0.00 60 1015.4
20181017215206 55 303 10.0 17.0 0.00 0.00 0.00 59 1015.3
20181017214706 55 297 10.0 15.0 0.00 0.00 0.00 58 1015.2
20181017214206 55 271 9.0 20.0 0.00 0.00 0.00 59 1015.1
20181017213706 56 297 10.0 15.0 0.00 0.00 0.00 58 1015.0
20181017213206 56 308 7.0 16.0 0.00 0.00 0.00 58 1014.8
20181017212706 56 281 9.0 20.0 0.00 0.00 0.00 57 1014.8
20181017212205 57 297 9.0 17.0 0.00 0.00 0.00 55 1014.7
20181017211706 57 303 8.0 17.0 0.00 0.00 0.00 54 1014.6
20181017211205 58 283 7.0 14.0 0.00 0.00 0.00 53 1014.5
20181017210708 58 315 8.0 16.0 0.00 0.00 0.00 54 1014.4
20181017210206 59 295 9.0 16.0 0.00 0.00 0.00 51 1014.3
20181017205706 59 286 7.0 20.0 0.00 0.00 0.00 50 1014.2
20181017205205 58 296 8.0 20.0 0.00 0.00 0.00 50 1014.2
20181017204705 59 276 10.0 20.0 0.00 0.00 0.00 48 1014.1
20181017204206 60 276 10.0 22.0 0.00 0.00 0.00 47 1014.1
20181017203705 61 311 7.0 15.0 0.00 0.00 0.00 47 1014.0
20181017203205 61 283 9.0 29.0 0.00 0.00 0.00 47 1013.9
20181017202705 61 275 10.0 25.0 0.00 0.00 0.00 45 1013.9
20181017202206 61 295 12.0 16.0 0.00 0.00 0.00 47 1013.9
20181017201705 62 298 9.0 24.0 0.00 0.00 0.00 47 1013.7
20181017201206 62 297 10.0 25.0 0.00 0.00 0.00 46 1013.6
20181017200708 62 307 12.0 21.0 0.00 0.00 0.00 47 1013.6
20181017200205 62 292 5.0 14.0 0.00 0.00 0.00 51 1013.5
20181017195705 62 286 10.0 15.0 0.00 0.00 0.00 52 1013.4
20181017195206 61 266 11.0 22.0 0.00 0.00 0.00 54 1013.3
20181017194706 60 278 10.0 17.0 0.00 0.00 0.00 56 1013.3
20181017194206 58 285 9.0 17.0 0.00 0.00 0.00 61 1013.4
20181017193705 57 275 7.0 13.0 0.00 0.00 0.00 62 1013.4
20181017193205 58 253 3.0 9.0 0.00 0.00 0.00 60 1013.3
20181017192705 59 286 6.0 14.0 0.00 0.00 0.00 58 1013.2
20181017192205 60 307 6.0 13.0 0.00 0.00 0.00 57 1013.2
20181017191705 59 305 6.0 9.0 0.00 0.00 0.00 58 1013.2
20181017191206 59 303 4.0 6.0 0.00 0.00 0.00 59 1013.2
20181017190706 59 269 3.0 10.0 0.00 0.00 0.00 62 1013.2
20181017190206 59 267 4.0 9.0 0.00 0.00 0.00 60 1013.2
20181017185705 60 282 5.0 16.0 0.00 0.00 0.00 57 1013.2
20181017185206 60 281 6.0 16.0 0.00 0.00 0.00 58 1013.2
20181017184706 61 305 10.0 17.0 0.00 0.00 0.00 55 1013.2
20181017184205 60 284 9.0 20.0 0.00 0.00 0.00 57 1013.2
20181017183705 59 276 7.0 17.0 0.00 0.00 0.00 59 1013.2
20181017183206 59 273 7.0 15.0 0.00 0.00 0.00 58 1013.2
20181017182706 59 251 7.0 13.0 0.00 0.00 0.00 58 1013.3
20181017182206 59 254 8.0 14.0 0.00 0.00 0.00 58 1013.4
20181017181705 59 268 7.0 13.0 0.00 0.00 0.00 60 1013.4
20181017181206 59 262 11.0 20.0 0.00 0.00 0.00 54 1013.3
20181017180708 60 267 14.0 20.0 0.00 0.00 0.00 54 1013.3
20181017180205 60 260 13.0 21.0 0.00 0.00 0.00 54 1013.5
20181017175706 61 258 9.0 15.0 0.00 0.00 0.00 54 1013.6
20181017175206 61 265 10.0 15.0 0.00 0.00 0.00 53 1013.5
20181017174706 60 267 10.0 20.0 0.00 0.00 0.00 57 1013.6
20181017174205 60 238 13.0 17.0 0.00 0.00 0.00 57 1013.6
20181017173705 60 250 12.0 15.0 0.00 0.00 0.00 54 1013.8
20181017173206 59 255 7.0 20.0 0.00 0.00 0.00 54 1013.8
20181017172706 60 262 13.0 21.0 0.00 0.00 0.00 55 1014.0
20181017172205 61 247 13.0 26.0 0.00 0.00 0.00 54 1014.1
20181017171705 61 239 9.0 17.0 0.00 0.00 0.00 56 1014.0
20181017171205 61 242 10.0 20.0 0.00 0.00 0.00 57 1014.2
20181017170705 60 287 9.0 13.0 0.00 0.00 0.00 58 1014.1
20181017170206 60 233 7.0 14.0 0.00 0.00 0.00 58 1014.2
20181017165705 60 245 7.0 14.0 0.00 0.00 0.00 58 1014.2
20181017165206 60 228 8.0 13.0 0.00 0.00 0.00 58 1014.5
20181017164705 60 283 10.0 15.0 0.00 0.00 0.00 60 1014.7
20181017164205 60 255 8.0 14.0 0.00 0.00 0.00 59 1014.7
20181017163706 59 252 5.0 14.0 0.00 0.00 0.00 61 1014.8
20181017163206 59 252 7.0 14.0 0.00 0.00 0.00 61 1015.0
20181017162705 59 265 10.0 15.0 0.00 0.00 0.00 61 1015.2
20181017162205 58 243 9.0 14.0 0.00 0.00 0.00 61 1015.3
20181017161705 58 248 10.0 17.0 0.00 0.00 0.00 60 1015.4
20181017161205 58 268 10.0 20.0 0.00 0.00 0.00 60 1015.5
20181017160706 58 275 10.0 15.0 0.00 0.00 0.00 64 1015.6
20181017160205 58 272 8.0 15.0 0.00 0.00 0.00 62 1015.6
20181017155705 58 270 11.0 22.0 0.00 0.00 0.00 62 1015.6
20181017155206 58 247 9.0 17.0 0.00 0.00 0.00 62 1015.7
20181017154706 58 266 7.0 13.0 0.00 0.00 0.00 63 1015.6
20181017154206 57 236 9.0 17.0 0.00 0.00 0.00 61 1015.6
20181017153705 57 237 11.0 16.0 0.00 0.00 0.00 61 1015.7
20181017153206 57 249 8.0 12.0 0.00 0.00 0.00 64 1015.7
20181017152706 56 248 9.0 14.0 0.00 0.00 0.00 62 1015.8
20181017152205 56 272 9.0 15.0 0.00 0.00 0.00 63 1015.9
20181017151706 56 253 9.0 15.0 0.00 0.00 0.00 63 1016.0
20181017151205 56 264 5.0 15.0 0.00 0.00 0.00 67 1016.0
20181017150705 56 258 6.0 12.0 0.00 0.00 0.00 65 1016.0
20181017150206 55 239 9.0 15.0 0.00 0.00 0.00 66 1016.2
20181017145706 55 267 9.0 15.0 0.00 0.00 0.00 68 1016.3
20181017145206 55 269 7.0 16.0 0.00 0.00 0.00 67 1016.3
20181017144705 55 276 8.0 16.0 0.00 0.00 0.00 67 1016.3
20181017144205 55 288 9.0 18.0 0.00 0.00 0.00 66 1016.3
20181017143706 55 271 9.0 13.0 0.00 0.00 0.00 69 1016.2
20181017143205 54 268 8.0 14.0 0.00 0.00 0.00 67 1016.1
20181017142705 54 261 10.0 20.0 0.00 0.00 0.00 66 1016.1
20181017142205 54 275 11.0 18.0 0.00 0.00 0.00 66 1016.1
20181017141706 54 257 9.0 16.0 0.00 0.00 0.00 67 1016.1
20181017141206 54 258 8.0 14.0 0.00 0.00 0.00 72 1016.1
20181017140706 53 287 10.0 16.0 0.00 0.00 0.00 70 1016.2
20181017140205 53 270 11.0 15.0 0.00 0.00 0.00 72 1016.3
20181017135707 52 271 11.0 15.0 0.00 0.00 0.00 73 1016.2
20181017135206 52 261 10.0 18.0 0.00 0.00 0.00 72 1016.2
20181017134705 51 276 9.0 18.0 0.00 0.00 0.00 72 1016.2
20181017134206 51 257 10.0 17.0 0.00 0.00 0.00 72 1016.1
20181017133705 51 276 10.0 17.0 0.00 0.00 0.00 74 1016.2
20181017133206 51 257 9.0 20.0 0.00 0.00 0.00 75 1016.3
20181017132705 50 260 7.0 15.0 0.00 0.00 0.00 76 1016.3
20181017132206 50 263 10.0 16.0 0.00 0.00 0.00 77 1016.3
20181017131706 49 264 7.0 12.0 0.00 0.00 0.00 78 1016.3
20181017131206 49 268 7.0 13.0 0.00 0.00 0.00 79 1016.2
20181017130705 49 277 6.0 14.0 0.00 0.00 0.00 81 1016.1
20181017130205 48 265 7.0 12.0 0.00 0.00 0.00 81 1016.3
20181017125706 48 268 5.0 9.0 0.00 0.00 0.00 82 1016.2
20181017125206 47 237 3.0 7.0 0.00 0.00 0.00 85 1016.1
20181017124706 46 245 6.0 9.0 0.00 0.00 0.00 86 1016.1
20181017124206 46 233 0.0 0.0 0.00 0.00 0.00 87 1016.2
20181017123706 45 235 0.0 1.0 0.00 0.00 0.00 88 1016.3
20181017123206 45 243 0.0 0.0 0.00 0.00 0.00 89 1016.3
20181017122705 44 223 0.0 0.0 0.00 0.00 0.00 91 1016.4
20181017122205 44 227 1.0 3.0 0.00 0.00 0.00 91 1016.3
20181017121705 43 222 0.0 3.0 0.00 0.00 0.00 91 1016.3
20181017121205 43 237 1.0 5.0 0.00 0.00 0.00 91 1016.2
20181017120705 43 232 1.0 5.0 0.00 0.00 0.00 91 1016.2
20181017120206 43 223 0.0 3.0 0.00 0.00 0.00 91 1016.2
20181017115706 43 245 0.0 0.0 0.00 0.00 0.00 91 1016.2
20181017115206 44 232 1.0 5.0 0.00 0.00 0.00 91 1015.9
20181017114705 44 245 0.0 3.0 0.00 0.00 0.00 91 1016.0
20181017114205 44 235 1.0 7.0 0.00 0.00 0.00 92 1016.0
20181017113705 44 255 1.0 5.0 0.00 0.00 0.00 92 1016.2
20181017113206 44 246 1.0 6.0 0.00 0.00 0.00 92 1016.0
20181017112705 44 227 0.0 3.0 0.00 0.00 0.00 92 1016.0
20181017112205 44 225 2.0 7.0 0.00 0.00 0.00 93 1016.1
20181017111705 43 215 1.0 5.0 0.00 0.00 0.00 94 1016.2
20181017111205 43 231 0.0 2.0 0.00 0.00 0.00 94 1016.3
20181017110705 43 244 1.0 3.0 0.00 0.00 0.00 93 1016.3
20181017110205 43 249 0.0 0.0 0.00 0.00 0.00 93 1016.4
20181017105706 44 248 0.0 0.0 0.00 0.00 0.00 93 1016.4
20181017105206 44 247 0.0 0.0 0.00 0.00 0.00 93 1016.5
20181017104705 44 235 1.0 3.0 0.00 0.00 0.00 93 1016.5
20181017104206 43 267 0.0 3.0 0.00 0.00 0.00 94 1016.5
20181017103706 43 263 1.0 6.0 0.00 0.00 0.00 94 1016.6
20181017103206 43 259 0.0 3.0 0.00 0.00 0.00 94 1016.6
20181017102706 43 261 0.0 0.0 0.00 0.00 0.00 94 1016.7
20181017102205 43 261 0.0 0.0 0.00 0.00 0.00 94 1016.7
20181017101705 43 261 0.0 0.0 0.00 0.00 0.00 94 1016.8
20181017101205 43 261 0.0 0.0 0.00 0.00 0.00 94 1016.8
20181017100705 43 261 0.0 0.0 0.00 0.00 0.00 94 1016.7
20181017100206 43 261 0.0 0.0 0.00 0.00 0.00 94 1016.7
20181017095705 43 261 0.0 0.0 0.00 0.00 0.00 94 1016.7
20181017095205 43 261 0.0 0.0 0.00 0.00 0.00 94 1016.7
20181017094705 44 261 0.0 0.0 0.00 0.00 0.00 93 1016.8
20181017094205 44 261 0.0 0.0 0.00 0.00 0.00 93 1016.9
20181017093706 44 259 0.0 3.0 0.00 0.00 0.00 93 1016.9
20181017093206 44 235 0.0 2.0 0.00 0.00 0.00 93 1016.9
20181017092706 45 239 0.0 3.0 0.00 0.00 0.00 93 1016.9
20181017092206 44 244 1.0 7.0 0.00 0.00 0.00 93 1016.7
20181017091705 45 268 0.0 3.0 0.00 0.00 0.00 94 1016.7
20181017091205 44 253 1.0 7.0 0.00 0.00 0.00 94 1016.7
20181017090705 44 267 2.0 5.0 0.00 0.00 0.00 95 1016.8
20181017090207 44 253 1.0 3.0 0.00 0.00 0.00 95 1016.7
20181017085705 43 258 1.0 3.0 0.00 0.00 0.00 96 1016.8
20181017085206 43 272 1.0 3.0 0.00 0.00 0.00 96 1016.8
20181017084706 42 269 1.0 6.0 0.00 0.00 0.00 96 1016.8
20181017084207 42 260 1.0 3.0 0.00 0.00 0.00 96 1016.8
20181017083705 42 273 1.0 3.0 0.00 0.00 0.00 96 1016.6
20181017083205 42 266 0.0 2.0 0.00 0.00 0.00 96 1016.5
20181017082706 42 257 0.0 2.0 0.00 0.00 0.00 96 1016.5
20181017082205 42 245 0.0 3.0 0.00 0.00 0.00 96 1016.6
20181017081705 42 234 1.0 3.0 0.00 0.00 0.00 96 1016.5
20181017081206 42 256 1.0 3.0 0.00 0.00 0.00 96 1016.5
20181017080705 42 263 0.0 3.0 0.00 0.00 0.00 96 1016.6
20181017080205 42 263 0.0 2.0 0.00 0.00 0.00 96 1016.6
20181017075705 42 263 0.0 1.0 0.00 0.00 0.00 96 1016.7
20181017075206 42 263 0.0 0.0 0.00 0.00 0.00 96 1016.7
20181017074705 42 263 0.0 3.0 0.00 0.00 0.00 97 1016.7
20181017074206 42 263 1.0 3.0 0.00 0.00 0.00 96 1016.7
20181017073705 42 263 0.0 1.0 0.00 0.00 0.00 96 1016.7
20181017073205 41 263 0.0 0.0 0.00 0.00 0.00 96 1016.7
20181017072705 42 263 0.0 0.0 0.00 0.00 0.00 96 1016.6
20181017072205 42 263 0.0 0.0 0.00 0.00 0.00 96 1016.7
20181017071705 42 263 0.0 0.0 0.00 0.00 0.00 96 1016.8
20181017071205 42 263 1.0 2.0 0.00 0.00 0.00 96 1016.7
20181017070705 42 263 0.0 0.0 0.00 0.00 0.00 96 1016.7
20181017070205 42 263 0.0 0.0 0.00 0.00 0.00 95 1016.8
20181017065705 42 263 0.0 0.0 0.00 0.00 0.00 95 1016.8
20181017065205 42 263 0.0 0.0 0.00 0.00 0.00 95 1016.9
20181017064705 42 263 0.0 0.0 0.00 0.00 0.00 95 1016.8
20181017064206 42 263 0.0 0.0 0.00 0.00 0.00 95 1016.8
20181017063705 42 263 0.0 0.0 0.00 0.00 0.00 95 1017.1
20181017063207 42 263 0.0 0.0 0.00 0.00 0.00 94 1017.2
20181017062707 42 263 0.0 0.0 0.00 0.00 0.00 94 1017.1
20181017062205 43 263 0.0 0.0 0.00 0.00 0.00 94 1017.2
20181017061706 43 263 0.0 0.0 0.00 0.00 0.00 94 1017.3
20181017061206 43 263 0.0 0.0 0.00 0.00 0.00 94 1017.4
20181017060706 43 263 1.0 3.0 0.00 0.00 0.00 94 1017.4
20181017060205 43 263 2.0 3.0 0.00 0.00 0.00 94 1017.5
20181017055706 42 263 0.0 0.0 0.00 0.00 0.00 95 1017.5
20181017055205 42 263 0.0 2.0 0.00 0.00 0.00 94 1017.6
20181017054705 42 263 1.0 2.0 0.00 0.00 0.00 94 1017.5
20181017054205 42 263 1.0 2.0 0.00 0.00 0.00 94 1017.5